createdAt,value
2016-11-26T12:00:02.246Z,1.24
2016-11-26T12:05:02.654Z,1.56
2016-11-26T12:10:03.003Z,1.72
2016-11-26T12:15:02.308Z,1.79
2016-11-26T12:20:02.848Z,1.84
2016-11-26T12:25:02.228Z,1.8
2016-11-26T12:30:02.574Z,1.83
2016-11-26T12:35:02.919Z,1.91
2016-11-26T12:40:02.278Z,1.94
2016-11-26T12:45:02.647Z,1.84
2016-11-26T12:50:03.008Z,1.66
2016-11-26T12:55:02.342Z,1.62
2016-11-26T13:00:02.662Z,1.57
2016-11-26T13:05:02.967Z,1.52
2016-11-26T13:10:02.305Z,1.57
2016-11-26T13:15:02.618Z,1.61
2016-11-26T13:20:03.008Z,1.63
2016-11-26T13:21:05.416Z,1.64
2016-11-26T13:25:02.399Z,1.66
2016-11-26T13:30:02.743Z,1.69
2016-11-26T13:35:03.043Z,1.66
2016-11-26T13:40:02.371Z,1.64
2016-11-26T13:45:02.728Z,1.61
2016-11-26T13:50:03.086Z,1.57
2016-11-26T13:55:02.409Z,1.63
2016-11-26T14:00:02.785Z,1.66
2016-11-26T14:05:03.107Z,1.68
2016-11-26T14:10:02.405Z,1.71
2016-11-26T14:15:02.741Z,1.76
2016-11-26T14:20:03.124Z,1.83
2016-11-26T14:25:02.448Z,1.84
2016-11-26T14:30:02.812Z,1.84
2016-11-26T14:35:03.107Z,1.81
2016-11-26T14:40:02.452Z,1.71
2016-11-26T14:45:02.806Z,1.56
2016-11-26T14:50:03.148Z,1.4
2016-11-26T14:55:02.500Z,1.25
2016-11-26T15:00:02.850Z,1.1
2016-11-26T20:35:03.044Z,1.03
2016-11-26T20:40:02.394Z,1.11
2016-11-26T20:45:02.724Z,1.2
2016-11-26T20:50:03.099Z,1.32
2016-11-26T20:55:02.458Z,1.46
2016-11-26T21:00:02.808Z,1.54
2016-11-26T21:05:02.190Z,1.65
2016-11-26T21:10:02.538Z,1.73
2016-11-26T21:15:02.890Z,1.81
2016-11-26T21:20:02.316Z,1.91
2016-11-26T21:25:02.693Z,2.03
2016-11-26T21:30:03.038Z,2.19
2016-11-26T21:35:02.376Z,2.37
2016-11-26T21:40:02.729Z,2.57
2016-11-26T21:45:03.097Z,2.67
2016-11-26T21:50:02.452Z,2.75
2016-11-26T21:55:02.765Z,2.83
2016-11-26T22:00:03.116Z,2.88
2016-11-26T22:05:02.481Z,2.93
2016-11-26T22:10:02.857Z,3
2016-11-26T22:15:02.198Z,3.1
2016-11-26T22:20:02.630Z,3.16
2016-11-26T22:25:02.982Z,3.29
2016-11-26T22:30:02.298Z,3.41
2016-11-26T22:35:02.613Z,3.53
2016-11-26T22:40:02.966Z,3.88
2016-11-26T22:45:02.325Z,4.19
2016-11-26T22:50:02.682Z,4.44
2016-11-26T22:55:03.013Z,4.56
2016-11-26T23:00:02.375Z,4.6
2016-11-26T23:05:02.752Z,4.64
2016-11-26T23:10:03.102Z,4.72
2016-11-26T23:15:02.447Z,4.74
2016-11-26T23:20:02.871Z,4.81
2016-11-26T23:25:02.245Z,4.83
2016-11-26T23:30:02.579Z,4.81
2016-11-26T23:35:02.941Z,4.81
2016-11-26T23:40:02.276Z,4.81
2016-11-26T23:45:02.603Z,4.78
2016-11-26T23:50:02.960Z,4.72
2016-11-26T23:55:02.305Z,4.67
